Terminal Aerodrome Forecast
Issued by NWS

Home | Current Version | Previous Version | Text Only | Print | Product List | Glossary On
Versions: 1 2 3 4 5 6 7 8 9 10 11 12 13 14 15 16 17 18 19 20 21 22 23 24 25 26 27 28 29 30 31 32
000
FTPQ31 PGUM 221952 AAB
TAFTYA
TAF AMD
PTYA 221952Z 2220/2318 28008KT P6SM VCTS SCT018CB SCT050 BKN130
      TEMPO 2220/2222 4SM TSRA SCT018CB BKN050
     FM222300 29009KT P6SM VCSH SCT018 SCT050 BKN130=

USA.gov is the U.S. government's official web portal to all federal, state and local government web resources and services.